sensor_id;sensor_type;location;lat;lon;timestamp;temperature;humidity
27026;DHT22;14565;48.626;8.978;2022-11-13T00:00:51;2.70;99.90
27026;DHT22;14565;48.626;8.978;2022-11-13T00:03:17;2.70;99.90
27026;DHT22;14565;48.626;8.978;2022-11-13T00:05:43;2.70;99.90
27026;DHT22;14565;48.626;8.978;2022-11-13T00:08:08;2.70;99.90
27026;DHT22;14565;48.626;8.978;2022-11-13T00:10:34;2.70;99.90
27026;DHT22;14565;48.626;8.978;2022-11-13T00:13:00;2.80;99.90
27026;DHT22;14565;48.626;8.978;2022-11-13T00:15:25;2.90;99.90
27026;DHT22;14565;48.626;8.978;2022-11-13T00:17:51;2.90;99.90
27026;DHT22;14565;48.626;8.978;2022-11-13T00:20:17;2.70;99.90
27026;DHT22;14565;48.626;8.978;2022-11-13T00:22:43;2.80;99.90
27026;DHT22;14565;48.626;8.978;2022-11-13T00:25:09;2.80;99.90
27026;DHT22;14565;48.626;8.978;2022-11-13T00:27:35;2.70;99.90
27026;DHT22;14565;48.626;8.978;2022-11-13T00:30:00;2.50;99.90
27026;DHT22;14565;48.626;8.978;2022-11-13T00:32:27;2.50;99.90
27026;DHT22;14565;48.626;8.978;2022-11-13T00:34:52;2.20;99.90
27026;DHT22;14565;48.626;8.978;2022-11-13T00:37:18;2.10;99.90
27026;DHT22;14565;48.626;8.978;2022-11-13T00:39:44;2.10;99.90
27026;DHT22;14565;48.626;8.978;2022-11-13T00:42:10;2.20;99.90
27026;DHT22;14565;48.626;8.978;2022-11-13T00:44:35;2.20;99.90
27026;DHT22;14565;48.626;8.978;2022-11-13T00:47:01;2.40;99.90
27026;DHT22;14565;48.626;8.978;2022-11-13T00:49:27;2.60;99.90
27026;DHT22;14565;48.626;8.978;2022-11-13T00:51:52;2.60;99.90
27026;DHT22;14565;48.626;8.978;2022-11-13T00:54:18;2.60;99.90
27026;DHT22;14565;48.626;8.978;2022-11-13T00:56:43;2.50;99.90
27026;DHT22;14565;48.626;8.978;2022-11-13T00:59:09;2.60;99.90
27026;DHT22;14565;48.626;8.978;2022-11-13T01:01:35;2.50;99.90
27026;DHT22;14565;48.626;8.978;2022-11-13T01:04:00;2.50;99.90
27026;DHT22;14565;48.626;8.978;2022-11-13T01:06:27;2.50;99.90
27026;DHT22;14565;48.626;8.978;2022-11-13T01:08:54;2.40;99.90
27026;DHT22;14565;48.626;8.978;2022-11-13T01:11:22;2.40;99.90
27026;DHT22;14565;48.626;8.978;2022-11-13T01:13:49;2.40;99.90
27026;DHT22;14565;48.626;8.978;2022-11-13T01:16:17;2.40;99.90
27026;DHT22;14565;48.626;8.978;2022-11-13T01:18:43;2.50;99.90
27026;DHT22;14565;48.626;8.978;2022-11-13T01:21:12;2.40;99.90
27026;DHT22;14565;48.626;8.978;2022-11-13T01:23:40;2.40;99.90
27026;DHT22;14565;48.626;8.978;2022-11-13T01:28:34;2.60;99.90
27026;DHT22;14565;48.626;8.978;2022-11-13T01:31:02;2.60;99.90
27026;DHT22;14565;48.626;8.978;2022-11-13T01:33:28;2.50;99.90
27026;DHT22;14565;48.626;8.978;2022-11-13T01:36:02;2.50;99.90
27026;DHT22;14565;48.626;8.978;2022-11-13T01:38:28;2.60;99.90
27026;DHT22;14565;48.626;8.978;2022-11-13T01:40:55;2.20;99.90
27026;DHT22;14565;48.626;8.978;2022-11-13T01:43:29;1.70;99.90
27026;DHT22;14565;48.626;8.978;2022-11-13T01:48:46;1.50;99.90
27026;DHT22;14565;48.626;8.978;2022-11-13T01:51:34;1.70;99.90
27026;DHT22;14565;48.626;8.978;2022-11-13T01:54:04;1.70;99.90
27026;DHT22;14565;48.626;8.978;2022-11-13T01:56:30;1.90;99.90
27026;DHT22;14565;48.626;8.978;2022-11-13T01:59:08;2.10;99.90
27026;DHT22;14565;48.626;8.978;2022-11-13T02:01:34;2.20;99.90
27026;DHT22;14565;48.626;8.978;2022-11-13T02:03:59;2.20;99.90
27026;DHT22;14565;48.626;8.978;2022-11-13T02:06:29;2.30;99.90
27026;DHT22;14565;48.626;8.978;2022-11-13T02:08:56;2.30;99.90
27026;DHT22;14565;48.626;8.978;2022-11-13T02:11:22;2.20;99.90
27026;DHT22;14565;48.626;8.978;2022-11-13T02:13:47;2.10;99.90
27026;DHT22;14565;48.626;8.978;2022-11-13T02:16:14;1.70;99.90
27026;DHT22;14565;48.626;8.978;2022-11-13T02:18:41;1.80;99.90
27026;DHT22;14565;48.626;8.978;2022-11-13T02:21:26;1.90;99.90
27026;DHT22;14565;48.626;8.978;2022-11-13T02:26:36;2.00;99.90
27026;DHT22;14565;48.626;8.978;2022-11-13T02:29:02;1.80;99.90
27026;DHT22;14565;48.626;8.978;2022-11-13T02:31:28;1.80;99.90
27026;DHT22;14565;48.626;8.978;2022-11-13T02:33:53;1.80;99.90
27026;DHT22;14565;48.626;8.978;2022-11-13T02:36:20;1.90;99.90
27026;DHT22;14565;48.626;8.978;2022-11-13T02:38:47;1.80;99.90
27026;DHT22;14565;48.626;8.978;2022-11-13T02:41:14;1.80;99.90
27026;DHT22;14565;48.626;8.978;2022-11-13T02:43:39;1.70;99.90
27026;DHT22;14565;48.626;8.978;2022-11-13T02:46:05;1.80;99.90
27026;DHT22;14565;48.626;8.978;2022-11-13T02:48:31;1.70;99.90
27026;DHT22;14565;48.626;8.978;2022-11-13T02:50:56;1.60;99.90
27026;DHT22;14565;48.626;8.978;2022-11-13T02:53:22;1.60;99.90
27026;DHT22;14565;48.626;8.978;2022-11-13T02:55:48;1.60;99.90
27026;DHT22;14565;48.626;8.978;2022-11-13T02:58:13;1.50;99.90
27026;DHT22;14565;48.626;8.978;2022-11-13T03:00:39;1.50;99.90
27026;DHT22;14565;48.626;8.978;2022-11-13T03:03:04;1.70;99.90
27026;DHT22;14565;48.626;8.978;2022-11-13T03:05:30;1.50;99.90
27026;DHT22;14565;48.626;8.978;2022-11-13T03:07:56;1.20;99.90
27026;DHT22;14565;48.626;8.978;2022-11-13T03:10:21;1.10;99.90
27026;DHT22;14565;48.626;8.978;2022-11-13T03:12:47;1.20;99.90
27026;DHT22;14565;48.626;8.978;2022-11-13T03:15:12;1.10;99.90
27026;DHT22;14565;48.626;8.978;2022-11-13T03:17:38;0.80;99.90
27026;DHT22;14565;48.626;8.978;2022-11-13T03:20:04;0.60;99.90
27026;DHT22;14565;48.626;8.978;2022-11-13T03:22:30;0.70;99.90
27026;DHT22;14565;48.626;8.978;2022-11-13T03:24:56;0.80;99.90
27026;DHT22;14565;48.626;8.978;2022-11-13T03:27:21;0.90;99.90
27026;DHT22;14565;48.626;8.978;2022-11-13T03:29:47;0.80;99.90
27026;DHT22;14565;48.626;8.978;2022-11-13T03:32:13;0.50;99.90
27026;DHT22;14565;48.626;8.978;2022-11-13T03:34:38;0.30;99.90
27026;DHT22;14565;48.626;8.978;2022-11-13T03:37:04;0.30;99.90
27026;DHT22;14565;48.626;8.978;2022-11-13T03:39:30;0.40;99.90
27026;DHT22;14565;48.626;8.978;2022-11-13T03:41:55;0.40;99.90
27026;DHT22;14565;48.626;8.978;2022-11-13T03:44:21;0.30;99.90
27026;DHT22;14565;48.626;8.978;2022-11-13T03:46:46;0.40;99.90
27026;DHT22;14565;48.626;8.978;2022-11-13T03:49:12;0.50;99.90
27026;DHT22;14565;48.626;8.978;2022-11-13T03:51:38;0.60;99.90
27026;DHT22;14565;48.626;8.978;2022-11-13T03:54:03;0.60;99.90
27026;DHT22;14565;48.626;8.978;2022-11-13T03:56:29;0.80;99.90
27026;DHT22;14565;48.626;8.978;2022-11-13T03:58:54;0.80;99.90
27026;DHT22;14565;48.626;8.978;2022-11-13T04:01:20;0.80;99.90
27026;DHT22;14565;48.626;8.978;2022-11-13T04:03:46;0.80;99.90
27026;DHT22;14565;48.626;8.978;2022-11-13T04:06:11;0.80;99.90
27026;DHT22;14565;48.626;8.978;2022-11-13T04:08:38;0.80;99.90
27026;DHT22;14565;48.626;8.978;2022-11-13T04:11:08;0.90;99.90
27026;DHT22;14565;48.626;8.978;2022-11-13T04:13:35;0.90;99.90
27026;DHT22;14565;48.626;8.978;2022-11-13T04:16:00;0.90;99.90
27026;DHT22;14565;48.626;8.978;2022-11-13T04:18:26;0.90;99.90
27026;DHT22;14565;48.626;8.978;2022-11-13T04:20:59;0.90;99.90
27026;DHT22;14565;48.626;8.978;2022-11-13T04:23:25;1.00;99.90
27026;DHT22;14565;48.626;8.978;2022-11-13T04:25:51;1.10;99.90
27026;DHT22;14565;48.626;8.978;2022-11-13T04:28:16;1.30;99.90
27026;DHT22;14565;48.626;8.978;2022-11-13T04:30:42;1.30;99.90
27026;DHT22;14565;48.626;8.978;2022-11-13T04:33:08;1.20;99.90
27026;DHT22;14565;48.626;8.978;2022-11-13T04:35:33;1.10;99.90
27026;DHT22;14565;48.626;8.978;2022-11-13T04:37:59;1.00;99.90
27026;DHT22;14565;48.626;8.978;2022-11-13T04:40:25;1.00;99.90
27026;DHT22;14565;48.626;8.978;2022-11-13T04:42:50;1.00;99.90
27026;DHT22;14565;48.626;8.978;2022-11-13T04:45:18;1.00;99.90
27026;DHT22;14565;48.626;8.978;2022-11-13T04:47:44;1.00;99.90
27026;DHT22;14565;48.626;8.978;2022-11-13T04:50:10;1.00;99.90
27026;DHT22;14565;48.626;8.978;2022-11-13T04:52:36;1.00;99.90
27026;DHT22;14565;48.626;8.978;2022-11-13T04:55:03;1.20;99.90
27026;DHT22;14565;48.626;8.978;2022-11-13T04:57:28;1.30;99.90
27026;DHT22;14565;48.626;8.978;2022-11-13T04:59:54;1.30;99.90
27026;DHT22;14565;48.626;8.978;2022-11-13T05:02:20;1.20;99.90
27026;DHT22;14565;48.626;8.978;2022-11-13T05:04:46;1.20;99.90
27026;DHT22;14565;48.626;8.978;2022-11-13T05:07:11;1.20;99.90
27026;DHT22;14565;48.626;8.978;2022-11-13T05:09:37;1.10;99.90
27026;DHT22;14565;48.626;8.978;2022-11-13T05:12:02;1.00;99.90
27026;DHT22;14565;48.626;8.978;2022-11-13T05:14:38;1.00;99.90
27026;DHT22;14565;48.626;8.978;2022-11-13T05:17:05;1.00;99.90
27026;DHT22;14565;48.626;8.978;2022-11-13T05:19:32;1.10;99.90
27026;DHT22;14565;48.626;8.978;2022-11-13T05:21:58;1.20;99.90
27026;DHT22;14565;48.626;8.978;2022-11-13T05:24:24;1.10;99.90
27026;DHT22;14565;48.626;8.978;2022-11-13T05:26:49;1.20;99.90
27026;DHT22;14565;48.626;8.978;2022-11-13T05:29:15;1.20;99.90
27026;DHT22;14565;48.626;8.978;2022-11-13T05:31:41;1.20;99.90
27026;DHT22;14565;48.626;8.978;2022-11-13T05:34:07;1.00;99.90
27026;DHT22;14565;48.626;8.978;2022-11-13T05:36:33;1.00;99.90
27026;DHT22;14565;48.626;8.978;2022-11-13T05:38:59;0.90;99.90
27026;DHT22;14565;48.626;8.978;2022-11-13T05:41:25;1.10;99.90
27026;DHT22;14565;48.626;8.978;2022-11-13T05:43:51;1.10;99.90
27026;DHT22;14565;48.626;8.978;2022-11-13T05:46:19;1.00;99.90
27026;DHT22;14565;48.626;8.978;2022-11-13T05:48:46;1.10;99.90
27026;DHT22;14565;48.626;8.978;2022-11-13T05:51:17;1.10;99.90
27026;DHT22;14565;48.626;8.978;2022-11-13T05:53:44;1.20;99.90
27026;DHT22;14565;48.626;8.978;2022-11-13T05:58:37;1.00;99.90
27026;DHT22;14565;48.626;8.978;2022-11-13T06:03:35;1.00;99.90
27026;DHT22;14565;48.626;8.978;2022-11-13T06:06:01;1.00;99.90
27026;DHT22;14565;48.626;8.978;2022-11-13T06:08:27;1.00;99.90
27026;DHT22;14565;48.626;8.978;2022-11-13T06:11:01;1.10;99.90
27026;DHT22;14565;48.626;8.978;2022-11-13T06:13:27;1.00;99.90
27026;DHT22;14565;48.626;8.978;2022-11-13T06:15:53;1.10;99.90
27026;DHT22;14565;48.626;8.978;2022-11-13T06:18:23;1.10;99.90
27026;DHT22;14565;48.626;8.978;2022-11-13T06:20:49;1.10;99.90
27026;DHT22;14565;48.626;8.978;2022-11-13T06:23:15;1.00;99.90
27026;DHT22;14565;48.626;8.978;2022-11-13T06:25:40;1.10;99.90
27026;DHT22;14565;48.626;8.978;2022-11-13T06:28:06;1.30;99.90
27026;DHT22;14565;48.626;8.978;2022-11-13T06:30:32;1.30;99.90
27026;DHT22;14565;48.626;8.978;2022-11-13T06:32:58;1.30;99.90
27026;DHT22;14565;48.626;8.978;2022-11-13T06:35:23;1.30;99.90
27026;DHT22;14565;48.626;8.978;2022-11-13T06:37:49;1.40;99.90
27026;DHT22;14565;48.626;8.978;2022-11-13T06:40:15;1.40;99.90
27026;DHT22;14565;48.626;8.978;2022-11-13T06:42:40;1.40;99.90
27026;DHT22;14565;48.626;8.978;2022-11-13T06:45:06;1.40;99.90
27026;DHT22;14565;48.626;8.978;2022-11-13T06:47:32;1.30;99.90
27026;DHT22;14565;48.626;8.978;2022-11-13T06:49:58;1.30;99.90
27026;DHT22;14565;48.626;8.978;2022-11-13T06:52:24;1.30;99.90
27026;DHT22;14565;48.626;8.978;2022-11-13T06:54:49;1.30;99.90
27026;DHT22;14565;48.626;8.978;2022-11-13T06:57:15;1.30;99.90
27026;DHT22;14565;48.626;8.978;2022-11-13T06:59:40;1.30;99.90
27026;DHT22;14565;48.626;8.978;2022-11-13T07:02:10;1.30;99.90
27026;DHT22;14565;48.626;8.978;2022-11-13T07:04:36;1.50;99.90
27026;DHT22;14565;48.626;8.978;2022-11-13T07:07:01;1.40;99.90
27026;DHT22;14565;48.626;8.978;2022-11-13T07:09:28;1.50;99.90
27026;DHT22;14565;48.626;8.978;2022-11-13T07:11:54;1.50;99.90
27026;DHT22;14565;48.626;8.978;2022-11-13T07:14:20;1.50;99.90
27026;DHT22;14565;48.626;8.978;2022-11-13T07:16:45;1.50;99.90
27026;DHT22;14565;48.626;8.978;2022-11-13T07:19:11;1.40;99.90
27026;DHT22;14565;48.626;8.978;2022-11-13T07:21:36;1.60;99.90
27026;DHT22;14565;48.626;8.978;2022-11-13T07:24:02;1.60;99.90
27026;DHT22;14565;48.626;8.978;2022-11-13T07:26:28;1.50;99.90
27026;DHT22;14565;48.626;8.978;2022-11-13T07:28:53;1.60;99.90
27026;DHT22;14565;48.626;8.978;2022-11-13T07:31:19;1.60;99.90
27026;DHT22;14565;48.626;8.978;2022-11-13T07:33:48;1.60;99.90
27026;DHT22;14565;48.626;8.978;2022-11-13T07:36:14;1.60;99.90
27026;DHT22;14565;48.626;8.978;2022-11-13T07:38:40;1.70;99.90
27026;DHT22;14565;48.626;8.978;2022-11-13T07:41:05;1.80;99.90
27026;DHT22;14565;48.626;8.978;2022-11-13T07:43:31;2.30;99.90
27026;DHT22;14565;48.626;8.978;2022-11-13T07:45:58;2.30;99.90
27026;DHT22;14565;48.626;8.978;2022-11-13T07:48:23;2.30;99.90
27026;DHT22;14565;48.626;8.978;2022-11-13T07:50:50;2.50;99.90
27026;DHT22;14565;48.626;8.978;2022-11-13T07:53:16;2.60;99.90
27026;DHT22;14565;48.626;8.978;2022-11-13T07:55:42;2.70;99.90
27026;DHT22;14565;48.626;8.978;2022-11-13T07:58:08;2.80;99.90
27026;DHT22;14565;48.626;8.978;2022-11-13T08:00:35;2.90;99.90
27026;DHT22;14565;48.626;8.978;2022-11-13T08:03:09;3.10;99.90
27026;DHT22;14565;48.626;8.978;2022-11-13T08:05:35;3.30;99.90
27026;DHT22;14565;48.626;8.978;2022-11-13T08:08:02;3.30;99.90
27026;DHT22;14565;48.626;8.978;2022-11-13T08:10:28;3.50;99.90
27026;DHT22;14565;48.626;8.978;2022-11-13T08:12:58;3.50;99.90
27026;DHT22;14565;48.626;8.978;2022-11-13T08:15:24;3.50;99.90
27026;DHT22;14565;48.626;8.978;2022-11-13T08:17:58;3.70;99.90
27026;DHT22;14565;48.626;8.978;2022-11-13T08:20:25;3.70;99.90
27026;DHT22;14565;48.626;8.978;2022-11-13T08:22:51;3.80;99.90
27026;DHT22;14565;48.626;8.978;2022-11-13T08:25:17;3.70;99.90
27026;DHT22;14565;48.626;8.978;2022-11-13T08:27:43;3.70;99.90
27026;DHT22;14565;48.626;8.978;2022-11-13T08:30:09;3.60;99.90
27026;DHT22;14565;48.626;8.978;2022-11-13T08:32:34;3.70;99.90
27026;DHT22;14565;48.626;8.978;2022-11-13T08:35:00;3.70;99.90
27026;DHT22;14565;48.626;8.978;2022-11-13T08:37:25;3.80;99.90
27026;DHT22;14565;48.626;8.978;2022-11-13T08:39:51;3.80;99.90
27026;DHT22;14565;48.626;8.978;2022-11-13T08:42:17;3.90;99.90
27026;DHT22;14565;48.626;8.978;2022-11-13T08:44:42;3.80;99.90
27026;DHT22;14565;48.626;8.978;2022-11-13T08:47:08;3.90;99.90
27026;DHT22;14565;48.626;8.978;2022-11-13T08:49:34;4.00;99.90
27026;DHT22;14565;48.626;8.978;2022-11-13T08:52:00;3.90;99.90
27026;DHT22;14565;48.626;8.978;2022-11-13T08:54:25;4.20;99.90
27026;DHT22;14565;48.626;8.978;2022-11-13T08:56:51;4.30;99.90
27026;DHT22;14565;48.626;8.978;2022-11-13T08:59:17;4.30;99.90
27026;DHT22;14565;48.626;8.978;2022-11-13T09:01:42;4.50;99.90
27026;DHT22;14565;48.626;8.978;2022-11-13T09:04:08;4.70;99.90
27026;DHT22;14565;48.626;8.978;2022-11-13T09:06:33;4.70;99.90
27026;DHT22;14565;48.626;8.978;2022-11-13T09:08:59;4.70;99.90
27026;DHT22;14565;48.626;8.978;2022-11-13T09:11:25;5.10;99.90
27026;DHT22;14565;48.626;8.978;2022-11-13T09:13:54;5.00;99.90
27026;DHT22;14565;48.626;8.978;2022-11-13T09:16:20;5.20;99.90
27026;DHT22;14565;48.626;8.978;2022-11-13T09:18:52;5.40;99.90
27026;DHT22;14565;48.626;8.978;2022-11-13T09:21:17;5.10;99.90
27026;DHT22;14565;48.626;8.978;2022-11-13T09:23:43;5.50;99.90
27026;DHT22;14565;48.626;8.978;2022-11-13T09:26:10;5.70;99.90
27026;DHT22;14565;48.626;8.978;2022-11-13T09:28:35;5.80;99.90
27026;DHT22;14565;48.626;8.978;2022-11-13T09:31:05;5.90;99.90
27026;DHT22;14565;48.626;8.978;2022-11-13T09:33:31;5.80;99.90
27026;DHT22;14565;48.626;8.978;2022-11-13T09:35:57;5.70;99.90
27026;DHT22;14565;48.626;8.978;2022-11-13T09:38:22;5.80;99.90
27026;DHT22;14565;48.626;8.978;2022-11-13T09:45:57;6.20;99.90
27026;DHT22;14565;48.626;8.978;2022-11-13T09:48:37;6.50;99.90
27026;DHT22;14565;48.626;8.978;2022-11-13T09:51:15;6.40;99.90
27026;DHT22;14565;48.626;8.978;2022-11-13T09:53:42;6.50;99.90
27026;DHT22;14565;48.626;8.978;2022-11-13T09:56:32;6.70;99.90
27026;DHT22;14565;48.626;8.978;2022-11-13T09:59:11;6.80;99.90
27026;DHT22;14565;48.626;8.978;2022-11-13T10:05:01;7.10;99.90
27026;DHT22;14565;48.626;8.978;2022-11-13T10:07:55;7.10;99.90
27026;DHT22;14565;48.626;8.978;2022-11-13T10:13:10;7.30;99.90
27026;DHT22;14565;48.626;8.978;2022-11-13T10:15:37;7.40;99.90
27026;DHT22;14565;48.626;8.978;2022-11-13T10:18:20;7.40;99.90
27026;DHT22;14565;48.626;8.978;2022-11-13T10:20:53;7.50;99.90
27026;DHT22;14565;48.626;8.978;2022-11-13T10:23:34;7.30;99.90
27026;DHT22;14565;48.626;8.978;2022-11-13T10:26:17;7.40;99.90
27026;DHT22;14565;48.626;8.978;2022-11-13T10:28:43;7.60;99.90
27026;DHT22;14565;48.626;8.978;2022-11-13T10:31:12;7.30;99.90
27026;DHT22;14565;48.626;8.978;2022-11-13T10:33:38;7.50;99.90
27026;DHT22;14565;48.626;8.978;2022-11-13T10:36:13;7.50;99.90
27026;DHT22;14565;48.626;8.978;2022-11-13T10:38:52;7.60;99.90
27026;DHT22;14565;48.626;8.978;2022-11-13T10:41:21;7.60;99.90
27026;DHT22;14565;48.626;8.978;2022-11-13T10:44:04;7.70;99.90
27026;DHT22;14565;48.626;8.978;2022-11-13T10:46:30;7.80;99.90
27026;DHT22;14565;48.626;8.978;2022-11-13T10:48:58;7.70;99.90
27026;DHT22;14565;48.626;8.978;2022-11-13T10:51:34;7.80;99.90
27026;DHT22;14565;48.626;8.978;2022-11-13T10:56:55;8.00;99.90
27026;DHT22;14565;48.626;8.978;2022-11-13T10:59:21;8.00;99.90
27026;DHT22;14565;48.626;8.978;2022-11-13T11:01:47;8.00;99.90
27026;DHT22;14565;48.626;8.978;2022-11-13T11:04:23;8.00;99.90
27026;DHT22;14565;48.626;8.978;2022-11-13T11:06:52;8.00;99.90
27026;DHT22;14565;48.626;8.978;2022-11-13T11:12:27;7.90;99.90
27026;DHT22;14565;48.626;8.978;2022-11-13T11:15:00;8.00;99.90
27026;DHT22;14565;48.626;8.978;2022-11-13T11:17:40;8.10;99.90
27026;DHT22;14565;48.626;8.978;2022-11-13T11:20:20;8.20;99.90
27026;DHT22;14565;48.626;8.978;2022-11-13T11:22:53;8.10;99.90
27026;DHT22;14565;48.626;8.978;2022-11-13T11:25:39;8.10;99.90
27026;DHT22;14565;48.626;8.978;2022-11-13T11:28:42;8.20;99.90
27026;DHT22;14565;48.626;8.978;2022-11-13T11:31:30;8.30;99.90
27026;DHT22;14565;48.626;8.978;2022-11-13T11:36:34;8.50;99.90
27026;DHT22;14565;48.626;8.978;2022-11-13T11:41:54;8.60;99.90
27026;DHT22;14565;48.626;8.978;2022-11-13T11:47:15;8.80;99.90
27026;DHT22;14565;48.626;8.978;2022-11-13T11:49:42;8.80;99.90
27026;DHT22;14565;48.626;8.978;2022-11-13T12:00:13;8.80;99.90
27026;DHT22;14565;48.626;8.978;2022-11-13T12:10:24;9.30;99.90
27026;DHT22;14565;48.626;8.978;2022-11-13T12:16:12;9.10;99.90
27026;DHT22;14565;48.626;8.978;2022-11-13T12:21:52;9.40;99.90
27026;DHT22;14565;48.626;8.978;2022-11-13T12:35:50;9.30;99.90
27026;DHT22;14565;48.626;8.978;2022-11-13T12:46:10;9.60;99.90
27026;DHT22;14565;48.626;8.978;2022-11-13T12:48:44;9.60;99.90
27026;DHT22;14565;48.626;8.978;2022-11-13T12:51:16;9.60;99.90
27026;DHT22;14565;48.626;8.978;2022-11-13T12:56:30;9.60;99.90
27026;DHT22;14565;48.626;8.978;2022-11-13T13:18:09;10.10;99.90
27026;DHT22;14565;48.626;8.978;2022-11-13T13:20:43;10.40;99.90
27026;DHT22;14565;48.626;8.978;2022-11-13T13:23:27;10.50;99.90
27026;DHT22;14565;48.626;8.978;2022-11-13T13:29:13;10.60;99.90
27026;DHT22;14565;48.626;8.978;2022-11-13T13:40:28;10.80;99.90
27026;DHT22;14565;48.626;8.978;2022-11-13T13:43:02;10.80;99.90
27026;DHT22;14565;48.626;8.978;2022-11-13T13:46:12;10.70;99.90
27026;DHT22;14565;48.626;8.978;2022-11-13T13:48:41;10.80;99.90
27026;DHT22;14565;48.626;8.978;2022-11-13T13:51:29;10.70;99.90
27026;DHT22;14565;48.626;8.978;2022-11-13T13:53:57;10.60;99.90
27026;DHT22;14565;48.626;8.978;2022-11-13T13:56:23;10.60;99.90
27026;DHT22;14565;48.626;8.978;2022-11-13T13:58:50;10.60;99.90
27026;DHT22;14565;48.626;8.978;2022-11-13T14:01:33;10.60;99.90
27026;DHT22;14565;48.626;8.978;2022-11-13T14:04:18;10.50;99.90
27026;DHT22;14565;48.626;8.978;2022-11-13T14:06:53;10.60;99.90
27026;DHT22;14565;48.626;8.978;2022-11-13T14:09:22;10.50;99.90
27026;DHT22;14565;48.626;8.978;2022-11-13T14:11:58;10.50;99.90
27026;DHT22;14565;48.626;8.978;2022-11-13T14:14:24;10.50;99.90
27026;DHT22;14565;48.626;8.978;2022-11-13T14:16:52;10.50;99.90
27026;DHT22;14565;48.626;8.978;2022-11-13T14:19:18;10.40;99.90
27026;DHT22;14565;48.626;8.978;2022-11-13T14:21:48;10.50;99.90
27026;DHT22;14565;48.626;8.978;2022-11-13T14:26:53;10.50;99.90
27026;DHT22;14565;48.626;8.978;2022-11-13T14:30:05;10.30;99.90
27026;DHT22;14565;48.626;8.978;2022-11-13T14:32:17;10.20;99.90
27026;DHT22;14565;48.626;8.978;2022-11-13T14:34:44;10.10;99.90
27026;DHT22;14565;48.626;8.978;2022-11-13T14:37:31;10.30;99.90
27026;DHT22;14565;48.626;8.978;2022-11-13T14:39:59;10.10;99.90
27026;DHT22;14565;48.626;8.978;2022-11-13T14:42:35;10.20;99.90
27026;DHT22;14565;48.626;8.978;2022-11-13T14:47:38;10.10;99.90
27026;DHT22;14565;48.626;8.978;2022-11-13T14:52:39;9.90;99.90
27026;DHT22;14565;48.626;8.978;2022-11-13T14:55:06;9.90;99.90
27026;DHT22;14565;48.626;8.978;2022-11-13T14:57:32;9.80;99.90
27026;DHT22;14565;48.626;8.978;2022-11-13T15:00:12;9.60;99.90
27026;DHT22;14565;48.626;8.978;2022-11-13T15:02:37;9.60;99.90
27026;DHT22;14565;48.626;8.978;2022-11-13T15:05:03;9.50;99.90
27026;DHT22;14565;48.626;8.978;2022-11-13T15:07:31;9.50;99.90
27026;DHT22;14565;48.626;8.978;2022-11-13T15:09:58;9.30;99.90
27026;DHT22;14565;48.626;8.978;2022-11-13T15:12:24;9.10;99.90
27026;DHT22;14565;48.626;8.978;2022-11-13T15:14:49;9.00;99.90
27026;DHT22;14565;48.626;8.978;2022-11-13T15:17:18;8.80;99.90
27026;DHT22;14565;48.626;8.978;2022-11-13T15:19:46;8.70;99.90
27026;DHT22;14565;48.626;8.978;2022-11-13T15:22:13;8.50;99.90
27026;DHT22;14565;48.626;8.978;2022-11-13T15:24:39;8.50;99.90
27026;DHT22;14565;48.626;8.978;2022-11-13T15:27:05;8.50;99.90
27026;DHT22;14565;48.626;8.978;2022-11-13T15:29:31;8.40;99.90
27026;DHT22;14565;48.626;8.978;2022-11-13T15:31:57;8.20;99.90
27026;DHT22;14565;48.626;8.978;2022-11-13T15:34:23;8.00;99.90
27026;DHT22;14565;48.626;8.978;2022-11-13T15:36:48;7.80;99.90
27026;DHT22;14565;48.626;8.978;2022-11-13T15:39:15;7.80;99.90
27026;DHT22;14565;48.626;8.978;2022-11-13T15:41:41;7.70;99.90
27026;DHT22;14565;48.626;8.978;2022-11-13T15:44:12;7.50;99.90
27026;DHT22;14565;48.626;8.978;2022-11-13T15:46:39;7.30;99.90
27026;DHT22;14565;48.626;8.978;2022-11-13T15:49:04;7.20;99.90
27026;DHT22;14565;48.626;8.978;2022-11-13T15:56:32;7.00;99.90
27026;DHT22;14565;48.626;8.978;2022-11-13T15:58:58;6.90;99.90
27026;DHT22;14565;48.626;8.978;2022-11-13T16:01:24;7.10;99.90
27026;DHT22;14565;48.626;8.978;2022-11-13T16:03:49;7.20;99.90
27026;DHT22;14565;48.626;8.978;2022-11-13T16:06:19;7.10;99.90
27026;DHT22;14565;48.626;8.978;2022-11-13T16:08:45;6.90;99.90
27026;DHT22;14565;48.626;8.978;2022-11-13T16:11:19;6.80;99.90
27026;DHT22;14565;48.626;8.978;2022-11-13T16:13:45;6.70;99.90
27026;DHT22;14565;48.626;8.978;2022-11-13T16:16:20;6.50;99.90
27026;DHT22;14565;48.626;8.978;2022-11-13T16:18:47;6.40;99.90
27026;DHT22;14565;48.626;8.978;2022-11-13T16:21:15;6.20;99.90
27026;DHT22;14565;48.626;8.978;2022-11-13T16:23:41;6.10;99.90
27026;DHT22;14565;48.626;8.978;2022-11-13T16:26:17;6.00;99.90
27026;DHT22;14565;48.626;8.978;2022-11-13T16:28:43;6.00;99.90
27026;DHT22;14565;48.626;8.978;2022-11-13T16:31:09;5.80;99.90
27026;DHT22;14565;48.626;8.978;2022-11-13T16:33:35;5.80;99.90
27026;DHT22;14565;48.626;8.978;2022-11-13T16:36:01;5.80;99.90
27026;DHT22;14565;48.626;8.978;2022-11-13T16:38:26;5.70;99.90
27026;DHT22;14565;48.626;8.978;2022-11-13T16:40:52;5.60;99.90
27026;DHT22;14565;48.626;8.978;2022-11-13T16:43:18;5.50;99.90
27026;DHT22;14565;48.626;8.978;2022-11-13T16:45:43;5.50;99.90
27026;DHT22;14565;48.626;8.978;2022-11-13T16:48:13;5.40;99.90
27026;DHT22;14565;48.626;8.978;2022-11-13T16:50:40;5.40;99.90
27026;DHT22;14565;48.626;8.978;2022-11-13T16:53:07;5.40;99.90
27026;DHT22;14565;48.626;8.978;2022-11-13T16:55:34;5.30;99.90
27026;DHT22;14565;48.626;8.978;2022-11-13T16:58:02;5.30;99.90
27026;DHT22;14565;48.626;8.978;2022-11-13T17:00:28;5.30;99.90
27026;DHT22;14565;48.626;8.978;2022-11-13T17:02:54;5.20;99.90
27026;DHT22;14565;48.626;8.978;2022-11-13T17:05:21;5.10;99.90
27026;DHT22;14565;48.626;8.978;2022-11-13T17:07:48;5.20;99.90
27026;DHT22;14565;48.626;8.978;2022-11-13T17:10:18;5.10;99.90
27026;DHT22;14565;48.626;8.978;2022-11-13T17:12:50;5.00;99.90
27026;DHT22;14565;48.626;8.978;2022-11-13T17:15:16;4.90;99.90
27026;DHT22;14565;48.626;8.978;2022-11-13T17:17:41;4.80;99.90
27026;DHT22;14565;48.626;8.978;2022-11-13T17:20:08;4.80;99.90
27026;DHT22;14565;48.626;8.978;2022-11-13T17:22:33;4.80;99.90
27026;DHT22;14565;48.626;8.978;2022-11-13T17:24:59;4.80;99.90
27026;DHT22;14565;48.626;8.978;2022-11-13T17:27:25;4.80;99.90
27026;DHT22;14565;48.626;8.978;2022-11-13T17:29:50;4.80;99.90
27026;DHT22;14565;48.626;8.978;2022-11-13T17:32:16;4.80;99.90
27026;DHT22;14565;48.626;8.978;2022-11-13T17:34:42;4.80;99.90
27026;DHT22;14565;48.626;8.978;2022-11-13T17:37:08;4.90;99.90
27026;DHT22;14565;48.626;8.978;2022-11-13T17:39:34;4.90;99.90
27026;DHT22;14565;48.626;8.978;2022-11-13T17:41:59;4.90;99.90
27026;DHT22;14565;48.626;8.978;2022-11-13T17:44:25;4.80;99.90
27026;DHT22;14565;48.626;8.978;2022-11-13T17:46:51;4.60;99.90
27026;DHT22;14565;48.626;8.978;2022-11-13T17:49:17;4.60;99.90
27026;DHT22;14565;48.626;8.978;2022-11-13T17:51:42;4.60;99.90
27026;DHT22;14565;48.626;8.978;2022-11-13T17:54:11;4.50;99.90
27026;DHT22;14565;48.626;8.978;2022-11-13T17:56:37;4.40;99.90